Time;durP1;ratioP1;P1;durP2;ratioP2;P2;SDS_P1;SDS_P2;PMS_P1;PMS_P2;Temp;Humidity;BMP_temperature;BMP_pressure;BME280_temperature;BME280_humidity;BME280_pressure;Samples;Min_cycle;Max_cycle;Signal;HPM_P1;HPM_P2
2024/02/14 00:00:19;;;;;;;5.37;1.70;;;;;;;4.97;69.12;95922.00;5017653;28;20221;-77
2024/02/14 00:02:44;;;;;;;3.90;1.77;;;;;;;5.02;69.12;95923.31;5003601;28;20216;-77
2024/02/14 00:05:10;;;;;;;5.03;2.00;;;;;;;5.12;68.81;95920.94;5021322;28;20189;-77
2024/02/14 00:07:37;;;;;;;3.80;1.53;;;;;;;5.14;68.61;95929.41;5019492;28;20183;-77
2024/02/14 00:10:02;;;;;;;2.47;1.70;;;;;;;5.12;69.04;95920.94;5009443;28;20568;-77
2024/02/14 00:12:28;;;;;;;2.37;1.47;;;;;;;5.14;68.79;95921.66;5018608;28;20224;-77
2024/02/14 00:14:53;;;;;;;4.67;1.57;;;;;;;5.23;68.67;95923.63;5020791;28;20190;-77
2024/02/14 00:17:18;;;;;;;2.43;1.50;;;;;;;5.34;68.46;95925.44;5018675;28;20189;-77
2024/02/14 00:19:44;;;;;;;2.03;1.30;;;;;;;5.32;68.38;95922.16;5019291;28;20204;-77
2024/02/14 00:22:09;;;;;;;4.87;1.53;;;;;;;5.33;68.23;95923.78;5015628;28;20221;-77
2024/02/14 00:24:35;;;;;;;2.03;1.40;;;;;;;5.35;68.04;95927.91;5009122;28;20230;-77
2024/02/14 00:27:03;;;;;;;3.20;1.33;;;;;;;5.51;67.50;95926.84;5016805;28;20228;-77
2024/02/14 00:29:28;;;;;;;1.57;1.10;;;;;;;5.50;67.60;95930.34;5020677;28;20655;-78
2024/02/14 00:31:53;;;;;;;2.90;1.47;;;;;;;5.50;67.50;95926.03;5017665;28;20270;-77
2024/02/14 00:34:19;;;;;;;4.87;1.30;;;;;;;5.62;66.93;95934.63;5014608;28;20226;-77
2024/02/14 00:36:44;;;;;;;1.97;1.10;;;;;;;5.67;66.68;95937.72;5004746;28;20186;-78
2024/02/14 00:39:10;;;;;;;5.03;1.30;;;;;;;5.71;66.61;95941.72;5019572;28;20195;-78
2024/02/14 00:41:35;;;;;;;6.13;1.40;;;;;;;5.71;67.20;95944.28;5014434;28;20214;-78
2024/02/14 00:44:02;;;;;;;3.40;1.70;;;;;;;5.68;67.14;95945.34;5018796;28;20691;-77
2024/02/14 00:46:28;;;;;;;3.27;1.40;;;;;;;5.69;67.24;95946.16;5015338;28;20187;-77
2024/02/14 00:48:54;;;;;;;5.13;1.30;;;;;;;5.71;67.14;95941.72;5019516;28;20195;-78
2024/02/14 00:51:20;;;;;;;3.67;1.30;;;;;;;5.75;66.78;95944.91;5004059;28;20738;-78
2024/02/14 00:53:45;;;;;;;2.20;1.43;;;;;;;5.77;66.69;95945.63;5002969;28;20298;-77
2024/02/14 00:56:10;;;;;;;2.90;1.37;;;;;;;5.80;66.70;95946.22;5017100;28;20187;-77
2024/02/14 00:58:36;;;;;;;3.23;1.53;;;;;;;5.79;66.77;95947.16;5017565;28;20187;-78
2024/02/14 01:01:02;;;;;;;4.07;1.50;;;;;;;5.87;66.33;95944.84;5020722;28;20210;-78
2024/02/14 01:03:27;;;;;;;2.73;1.40;;;;;;;5.85;66.14;95951.88;5020595;28;20221;-78
2024/02/14 01:05:52;;;;;;;2.20;1.40;;;;;;;5.84;66.64;95946.84;5016832;28;20190;-77
2024/02/14 01:08:17;;;;;;;3.17;1.53;;;;;;;5.93;65.96;95949.63;5009818;28;20196;-78
2024/02/14 01:10:43;;;;;;;1.33;1.20;;;;;;;5.91;66.59;95950.63;5015935;28;20198;-77
2024/02/14 01:13:08;;;;;;;4.93;1.60;;;;;;;5.96;66.43;95941.66;5018618;28;20269;-77
2024/02/14 01:15:34;;;;;;;3.23;1.30;;;;;;;5.95;66.49;95939.19;5015653;28;20203;-77
2024/02/14 01:17:59;;;;;;;4.03;1.40;;;;;;;5.99;65.72;95942.38;5017940;28;20189;-78
2024/02/14 01:20:25;;;;;;;3.73;1.87;;;;;;;5.99;66.10;95939.78;5016700;28;20210;-77
2024/02/14 01:22:51;;;;;;;5.97;1.97;;;;;;;6.00;66.29;95934.50;5006799;28;20220;-77
2024/02/14 01:25:16;;;;;;;3.13;1.40;;;;;;;6.00;66.37;95929.34;5015109;28;20681;-78
2024/02/14 01:27:42;;;;;;;3.23;1.37;;;;;;;5.92;66.58;95914.47;5011249;28;20214;-77
2024/02/14 01:30:09;;;;;;;3.67;1.60;;;;;;;5.90;66.12;95915.44;5020436;28;20317;-77
2024/02/14 01:32:34;;;;;;;4.50;1.70;;;;;;;5.85;66.42;95910.66;4999692;28;20217;-77
2024/02/14 01:35:00;;;;;;;3.20;1.80;;;;;;;5.88;66.13;95902.69;5017509;28;20192;-78
2024/02/14 01:37:26;;;;;;;8.50;1.90;;;;;;;5.78;66.53;95901.69;5025666;28;20277;-78
2024/02/14 01:39:51;;;;;;;2.60;1.57;;;;;;;5.84;65.92;95910.75;5005432;28;20281;-77
2024/02/14 01:42:16;;;;;;;2.37;1.60;;;;;;;5.69;66.85;95904.94;5010025;28;20722;-76
2024/02/14 01:44:43;;;;;;;4.60;1.80;;;;;;;5.83;66.24;95907.38;5007637;28;20210;-78
2024/02/14 01:47:09;;;;;;;1.83;1.30;;;;;;;5.83;66.16;95907.38;5016741;28;20187;-78
2024/02/14 01:49:36;;;;;;;4.70;1.60;;;;;;;5.81;66.21;95909.19;5010605;28;20186;-76
2024/02/14 01:52:02;;;;;;;4.83;1.70;;;;;;;5.75;66.84;95914.81;5012631;28;20205;-77
2024/02/14 01:54:31;;;;;;;4.07;1.60;;;;;;;5.78;66.67;95914.59;5020451;28;20174;-77
2024/02/14 01:56:58;;;;;;;5.73;1.60;;;;;;;5.66;67.15;95905.16;5017784;28;20181;-78
2024/02/14 01:59:24;;;;;;;2.90;1.40;;;;;;;5.53;67.62;95909.53;5010485;28;20259;-77
2024/02/14 02:01:51;;;;;;;2.70;1.50;;;;;;;5.37;68.00;95900.28;5002919;28;20192;-77
2024/02/14 02:04:17;;;;;;;4.70;2.00;;;;;;;5.42;68.09;95905.13;5020968;28;20209;-78
2024/02/14 02:06:43;;;;;;;3.10;2.00;;;;;;;5.34;68.26;95894.53;5017152;28;20584;-77
2024/02/14 02:09:09;;;;;;;3.73;2.00;;;;;;;5.25;68.58;95887.44;5018693;28;20183;-77
2024/02/14 02:11:48;;;;;;;3.53;1.80;;;;;;;5.21;68.99;95892.00;5008606;28;20194;-77
2024/02/14 02:14:14;;;;;;;4.33;2.03;;;;;;;5.02;69.77;95889.03;5004412;28;20237;-77
2024/02/14 02:16:39;;;;;;;3.03;2.07;;;;;;;5.00;69.71;95883.16;5024223;28;20671;-78
2024/02/14 02:19:08;;;;;;;3.47;1.90;;;;;;;4.92;70.09;95880.28;5019706;28;20218;-78
2024/02/14 02:21:34;;;;;;;2.67;2.23;;;;;;;4.91;70.01;95883.81;5001817;28;20195;-77
2024/02/14 02:24:00;;;;;;;5.33;2.30;;;;;;;4.87;70.57;95882.38;5003173;28;20202;-77
2024/02/14 02:26:26;;;;;;;3.13;2.30;;;;;;;4.80;70.49;95880.22;5014427;28;20182;-77
2024/02/14 02:28:51;;;;;;;7.83;2.10;;;;;;;4.80;71.21;95880.22;5008714;28;20184;-78
2024/02/14 02:31:16;;;;;;;4.60;2.67;;;;;;;4.71;71.32;95870.56;5018485;28;20343;-77
2024/02/14 02:33:43;;;;;;;5.83;2.50;;;;;;;4.77;71.40;95871.88;5013454;28;20227;-77
2024/02/14 02:36:09;;;;;;;4.50;3.03;;;;;;;4.67;72.24;95861.38;5016345;28;20529;-77
2024/02/14 02:38:36;;;;;;;4.10;2.60;;;;;;;4.64;72.64;95855.63;5003245;28;20186;-77
2024/02/14 02:41:02;;;;;;;4.03;2.70;;;;;;;4.58;73.15;95846.56;5020418;28;20529;-77
2024/02/14 02:43:28;;;;;;;4.47;2.67;;;;;;;4.62;72.67;95853.16;5013808;28;20195;-78
2024/02/14 02:45:53;;;;;;;3.37;2.40;;;;;;;4.55;73.22;95855.31;5003058;28;20182;-77
2024/02/14 02:48:23;;;;;;;3.47;2.30;;;;;;;4.50;73.81;95866.84;5022160;28;20178;-77
2024/02/14 02:50:49;;;;;;;5.60;2.70;;;;;;;4.39;74.63;95872.69;5008265;28;20791;-77
2024/02/14 02:53:15;;;;;;;6.37;2.63;;;;;;;4.39;75.28;95869.31;5006154;28;20202;-78
2024/02/14 02:55:41;;;;;;;6.73;2.60;;;;;;;4.33;75.10;95864.56;5015722;28;20206;-76
2024/02/14 02:58:06;;;;;;;2.93;2.40;;;;;;;4.42;75.31;95858.84;5006332;28;20182;-76
2024/02/14 03:00:32;;;;;;;4.17;2.03;;;;;;;4.46;75.33;95858.50;4998503;28;20777;-77
2024/02/14 03:02:58;;;;;;;4.37;2.23;;;;;;;4.31;75.67;95856.94;5017632;28;20202;-78
2024/02/14 03:05:23;;;;;;;3.63;2.43;;;;;;;4.47;75.18;95865.28;5018976;28;20228;-77
2024/02/14 03:07:50;;;;;;;4.93;2.33;;;;;;;4.42;75.66;95858.84;5021342;28;20274;-78
2024/02/14 03:10:17;;;;;;;4.47;2.20;;;;;;;4.34;75.92;95861.09;5017651;28;20591;-77
2024/02/14 03:12:46;;;;;;;4.83;2.20;;;;;;;4.50;75.51;95870.22;5020171;28;20230;-77
2024/02/14 03:15:13;;;;;;;4.10;2.27;;;;;;;4.46;76.13;95870.53;5003176;28;20182;-78
2024/02/14 03:17:38;;;;;;;4.83;2.47;;;;;;;4.39;76.04;95872.69;5018796;28;20197;-77
2024/02/14 03:20:10;;;;;;;3.40;2.57;;;;;;;4.45;75.88;95869.72;5018424;28;20178;-77
2024/02/14 03:22:35;;;;;;;5.67;1.87;;;;;;;4.41;76.49;95873.41;5021959;28;20222;-77
2024/02/14 03:25:01;;;;;;;3.80;2.23;;;;;;;4.42;76.33;95877.66;5018992;28;20317;-77
2024/02/14 03:27:26;;;;;;;4.13;1.87;;;;;;;4.52;76.22;95881.25;5016731;28;20206;-77
2024/02/14 03:29:52;;;;;;;5.90;2.40;;;;;;;4.52;75.95;95885.56;5019616;28;20217;-77
2024/02/14 03:32:17;;;;;;;4.40;2.00;;;;;;;4.48;76.44;95886.69;5020166;28;20194;-77
2024/02/14 03:34:42;;;;;;;3.53;2.20;;;;;;;4.51;76.13;95879.63;5013094;28;20242;-77
2024/02/14 03:37:08;;;;;;;4.60;2.50;;;;;;;4.64;75.81;95868.50;5008315;28;20596;-77
2024/02/14 03:39:33;;;;;;;3.87;2.10;;;;;;;4.68;75.63;95877.63;5007810;28;20229;-76
2024/02/14 03:42:02;;;;;;;3.33;1.60;;;;;;;4.62;75.82;95876.31;5018233;28;20251;-77
2024/02/14 03:44:27;;;;;;;5.77;2.17;;;;;;;4.68;75.42;95873.34;5009564;28;20211;-77
2024/02/14 03:46:53;;;;;;;4.87;2.23;;;;;;;4.57;76.00;95873.22;5019247;28;20695;-77
2024/02/14 03:49:19;;;;;;;4.10;2.17;;;;;;;4.62;75.86;95881.47;5023737;28;20230;-77
2024/02/14 03:51:45;;;;;;;4.53;2.30;;;;;;;4.60;75.43;95874.78;5027447;28;20196;-78
2024/02/14 03:54:11;;;;;;;3.67;2.70;;;;;;;4.53;75.67;95874.38;5023302;28;20192;-77
2024/02/14 03:56:37;;;;;;;3.90;2.30;;;;;;;4.51;76.11;95873.66;5006893;28;20187;-77
2024/02/14 03:59:05;;;;;;;5.47;2.43;;;;;;;4.50;75.08;95871.97;5010528;28;20196;-77
2024/02/14 04:01:31;;;;;;;5.47;2.33;;;;;;;4.50;75.31;95880.50;5019365;28;20270;-77
2024/02/14 04:03:56;;;;;;;2.83;2.20;;;;;;;4.43;75.61;95878.47;5021639;28;20297;-77
2024/02/14 04:06:21;;;;;;;4.83;2.50;;;;;;;4.33;75.82;95879.97;5022349;28;20222;-77
2024/02/14 04:08:47;;;;;;;5.00;3.40;;;;;;;4.36;75.41;95888.34;5018213;28;20271;-77
2024/02/14 04:11:14;;;;;;;4.60;2.70;;;;;;;4.38;76.06;95890.81;5021515;28;20198;-78
2024/02/14 04:13:39;;;;;;;5.83;3.07;;;;;;;4.35;75.98;95883.31;5023898;28;20253;-77
2024/02/14 04:16:05;;;;;;;6.70;2.60;;;;;;;4.44;75.16;95888.66;5022696;28;20496;-77
2024/02/14 04:18:30;;;;;;;5.73;2.70;;;;;;;4.42;76.05;95887.13;5019962;28;20664;-77
2024/02/14 04:20:56;;;;;;;5.37;2.53;;;;;;;4.34;76.23;95886.81;5021740;28;20184;-77
2024/02/14 04:23:22;;;;;;;7.17;2.63;;;;;;;4.25;76.10;95880.50;5022642;28;20706;-77
2024/02/14 04:25:48;;;;;;;5.27;2.80;;;;;;;4.17;77.11;95891.28;5015597;28;20537;-76
2024/02/14 04:28:13;;;;;;;6.10;2.90;;;;;;;4.17;77.13;95885.34;5022419;28;20186;-77
2024/02/14 04:30:39;;;;;;;3.87;2.80;;;;;;;4.23;76.80;95884.91;5004799;28;20182;-77
2024/02/14 04:33:05;;;;;;;4.23;2.77;;;;;;;4.09;76.91;95888.41;5014807;28;20230;-76
2024/02/14 04:35:30;;;;;;;3.97;2.27;;;;;;;4.09;76.96;95890.97;5017721;28;20178;-78
2024/02/14 04:37:56;;;;;;;4.27;2.67;;;;;;;4.04;76.87;95889.59;5021473;28;20195;-77
2024/02/14 04:40:22;;;;;;;4.20;2.53;;;;;;;3.97;77.92;95889.19;5009677;28;20191;-77
2024/02/14 04:42:47;;;;;;;5.67;2.20;;;;;;;3.96;77.63;95887.53;5016437;28;20557;-77
2024/02/14 04:45:13;;;;;;;4.03;2.00;;;;;;;4.06;77.31;95880.88;5020247;28;20262;-77
2024/02/14 04:47:38;;;;;;;7.13;2.87;;;;;;;4.05;77.30;95894.66;5024260;28;20277;-77
2024/02/14 04:50:04;;;;;;;4.20;2.57;;;;;;;4.05;77.34;95899.78;5017384;28;20786;-78
2024/02/14 04:52:30;;;;;;;6.93;3.30;;;;;;;4.11;77.61;95901.16;5024570;28;20206;-77
2024/02/14 04:54:56;;;;;;;12.17;4.37;;;;;;;4.14;77.41;95901.75;5018969;28;20179;-77
2024/02/14 04:57:21;;;;;;;10.63;4.63;;;;;;;4.18;77.32;95903.22;5020083;28;20211;-77
2024/02/14 04:59:47;;;;;;;6.33;3.27;;;;;;;4.15;77.37;95900.00;5020680;28;20187;-77
2024/02/14 05:02:12;;;;;;;3.97;2.37;;;;;;;4.24;77.26;95901.97;5008399;28;20253;-77
2024/02/14 05:04:40;;;;;;;5.30;3.00;;;;;;;4.17;76.60;95901.59;5006752;28;20625;-77
2024/02/14 05:07:06;;;;;;;4.13;2.80;;;;;;;4.14;77.22;95886.34;5017573;28;20237;-78
2024/02/14 05:09:32;;;;;;;6.47;2.93;;;;;;;4.18;77.31;95890.38;5017657;28;20853;-77
2024/02/14 05:11:57;;;;;;;6.40;3.20;;;;;;;4.29;76.46;95897.38;5032537;28;20193;-77
2024/02/14 05:14:23;;;;;;;8.17;3.87;;;;;;;4.25;77.01;95894.19;5018440;28;20175;-77
2024/02/14 05:16:48;;;;;;;8.57;3.03;;;;;;;4.30;76.36;95896.44;5018885;28;20175;-76
2024/02/14 05:19:14;;;;;;;5.73;3.57;;;;;;;4.35;76.17;95891.84;5017935;28;20244;-78
2024/02/14 05:21:39;;;;;;;5.67;3.50;;;;;;;4.40;76.52;95884.63;5013882;28;20192;-78
2024/02/14 05:24:06;;;;;;;6.83;4.00;;;;;;;4.41;76.46;95878.56;5020012;28;20644;-77
2024/02/14 05:26:31;;;;;;;5.47;3.63;;;;;;;4.42;76.08;95880.22;5005099;28;20213;-77
2024/02/14 05:28:57;;;;;;;3.73;2.53;;;;;;;4.53;75.82;95879.50;5006509;28;20209;-77
2024/02/14 05:31:22;;;;;;;2.93;1.80;;;;;;;4.60;75.43;95880.75;5018717;28;20199;-77
2024/02/14 05:33:47;;;;;;;1.97;1.17;;;;;;;4.62;75.21;95885.78;5006012;28;20293;-77
2024/02/14 05:36:13;;;;;;;3.03;1.67;;;;;;;4.69;74.66;95892.16;5007040;28;20282;-76
2024/02/14 05:38:38;;;;;;;3.47;1.67;;;;;;;4.72;75.02;95894.53;5021133;28;20192;-78
2024/02/14 05:41:03;;;;;;;2.40;1.50;;;;;;;4.82;74.51;95888.66;5017121;28;20190;-78
2024/02/14 05:43:29;;;;;;;1.93;1.63;;;;;;;4.84;74.89;95885.97;5017686;28;20214;-77
2024/02/14 05:45:55;;;;;;;6.50;2.10;;;;;;;4.91;74.42;95887.19;5006849;28;20234;-77
2024/02/14 05:48:20;;;;;;;7.27;2.90;;;;;;;4.84;74.86;95891.09;5010391;28;20189;-77
2024/02/14 05:50:45;;;;;;;10.37;3.43;;;;;;;4.83;74.18;95880.00;5018227;28;20180;-77
2024/02/14 05:53:12;;;;;;;12.23;2.77;;;;;;;4.79;74.78;95885.47;5019794;28;20195;-78
2024/02/14 05:55:38;;;;;;;11.60;2.67;;;;;;;4.87;74.51;95890.09;5020133;28;20223;-77
2024/02/14 05:58:03;;;;;;;9.17;2.90;;;;;;;4.74;74.46;95890.09;5007046;28;20186;-77
2024/02/14 06:00:29;;;;;;;11.83;3.00;;;;;;;4.76;74.48;95890.81;5018153;28;20195;-77
2024/02/14 06:02:54;;;;;;;3.03;1.63;;;;;;;4.82;74.39;95898.13;5002562;28;20237;-77
2024/02/14 06:05:20;;;;;;;6.13;2.57;;;;;;;4.86;74.40;95893.56;5019514;28;20594;-77
2024/02/14 06:07:45;;;;;;;5.87;3.17;;;;;;;4.74;75.17;95890.91;5009352;28;20184;-76
2024/02/14 06:10:11;;;;;;;10.70;3.40;;;;;;;4.76;75.14;95889.06;5015051;28;20268;-77
2024/02/14 06:12:36;;;;;;;8.37;3.87;;;;;;;4.82;75.00;95892.97;5003475;28;20260;-77
2024/02/14 06:15:02;;;;;;;11.93;3.63;;;;;;;4.92;74.53;95898.31;5022579;28;20223;-77
2024/02/14 06:17:27;;;;;;;8.93;3.23;;;;;;;4.89;74.50;95901.94;5014732;28;20179;-77
2024/02/14 06:19:53;;;;;;;11.10;3.77;;;;;;;5.03;74.29;95911.25;5004628;28;20182;-77
2024/02/14 06:22:19;;;;;;;10.37;3.60;;;;;;;5.06;73.60;95906.75;5015395;28;20221;-77
2024/02/14 06:24:44;;;;;;;9.70;3.13;;;;;;;4.99;74.22;95909.84;5019195;28;20208;-77
2024/02/14 06:27:09;;;;;;;9.53;3.07;;;;;;;5.06;74.13;95914.47;5017079;28;20290;-78
2024/02/14 06:29:35;;;;;;;4.73;2.50;;;;;;;4.97;74.77;95912.53;5008444;28;20254;-77
2024/02/14 06:32:00;;;;;;;5.03;2.60;;;;;;;5.13;73.92;95911.47;5018534;28;20202;-77
2024/02/14 06:34:28;;;;;;;7.77;2.37;;;;;;;5.16;73.88;95918.97;5021525;28;20662;-77
2024/02/14 06:36:53;;;;;;;7.43;2.33;;;;;;;5.17;74.36;95918.88;5016636;28;20190;-78
2024/02/14 06:39:20;;;;;;;4.50;2.00;;;;;;;5.23;74.37;95918.47;5018635;28;20183;-78
2024/02/14 06:41:46;;;;;;;4.73;2.20;;;;;;;5.32;73.70;95917.00;5005920;28;20206;-78
2024/02/14 06:44:15;;;;;;;5.70;2.40;;;;;;;5.38;74.33;95937.16;5008463;28;20210;-77
2024/02/14 06:46:41;;;;;;;6.27;2.47;;;;;;;5.51;74.44;95932.81;5016075;28;20237;-76
2024/02/14 06:49:07;;;;;;;7.50;2.37;;;;;;;5.57;74.67;95929.00;5020430;28;20671;-78
2024/02/14 06:51:33;;;;;;;9.60;3.97;;;;;;;5.72;73.91;95932.22;5019137;28;20187;-77
2024/02/14 06:53:58;;;;;;;9.67;4.43;;;;;;;5.76;74.03;95929.34;5010010;28;20298;-78
2024/02/14 06:56:23;;;;;;;9.30;4.47;;;;;;;5.79;74.02;95939.41;5018986;28;20213;-78
2024/02/14 06:58:55;;;;;;;12.37;4.00;;;;;;;5.86;74.15;95937.25;5003113;28;20186;-78
2024/02/14 07:01:23;;;;;;;21.23;4.63;;;;;;;5.78;74.54;95935.19;5023306;28;20183;-76
2024/02/14 07:03:49;;;;;;;17.33;3.63;;;;;;;5.87;74.24;95942.28;5025111;28;20229;-78
2024/02/14 07:06:15;;;;;;;17.33;3.93;;;;;;;6.00;74.09;95947.41;5013337;28;20174;-78
2024/02/14 07:08:41;;;;;;;13.40;3.87;;;;;;;6.05;74.28;95953.06;5008827;28;20263;-77
2024/02/14 07:11:06;;;;;;;12.43;3.43;;;;;;;6.08;73.96;95957.16;5011363;28;20186;-77
2024/02/14 07:13:31;;;;;;;10.17;2.60;;;;;;;6.16;74.37;95954.88;5025456;28;20206;-78
2024/02/14 07:15:57;;;;;;;5.90;2.10;;;;;;;6.29;74.32;95949.66;5007354;28;20183;-78
2024/02/14 07:18:22;;;;;;;8.27;2.70;;;;;;;6.39;73.97;95954.03;5010334;28;20195;-77
2024/02/14 07:20:47;;;;;;;9.03;2.40;;;;;;;6.54;73.75;95957.25;5020547;28;20281;-78
2024/02/14 07:23:13;;;;;;;5.90;1.77;;;;;;;6.64;74.06;95959.97;5019268;28;20223;-77
2024/02/14 07:25:38;;;;;;;4.43;1.80;;;;;;;6.77;73.87;95961.50;5009200;28;20198;-78
2024/02/14 07:28:03;;;;;;;3.00;1.90;;;;;;;6.96;73.80;95966.13;5020522;28;20213;-78
2024/02/14 07:30:29;;;;;;;4.47;2.83;;;;;;;7.06;73.73;95969.66;5023690;28;20191;-78
2024/02/14 07:32:54;;;;;;;5.87;1.87;;;;;;;7.21;73.28;95970.25;5019195;28;20202;-77
2024/02/14 07:35:19;;;;;;;3.47;1.20;;;;;;;7.39;72.39;95968.03;5010276;28;20189;-78
2024/02/14 07:37:46;;;;;;;3.90;1.40;;;;;;;7.65;71.77;95969.44;5010418;28;20182;-77
2024/02/14 07:40:11;;;;;;;4.07;1.60;;;;;;;7.82;71.31;95973.28;5020839;28;20198;-78
2024/02/14 07:42:36;;;;;;;4.35;1.80;;;;;;;7.84;71.15;95973.97;5010998;28;20222;-77
2024/02/14 07:45:03;;;;;;;5.30;1.60;;;;;;;7.90;70.97;95977.84;5010099;28;20465;-78
2024/02/14 07:47:29;;;;;;;4.30;1.60;;;;;;;7.92;70.73;95979.38;5019499;28;20190;-77
2024/02/14 07:49:54;;;;;;;8.03;1.67;;;;;;;7.95;71.52;95986.06;5010325;28;20661;-78
2024/02/14 07:52:21;;;;;;;5.23;2.00;;;;;;;7.97;70.50;95991.13;5010597;28;20191;-77
2024/02/14 07:54:46;;;;;;;3.70;1.60;;;;;;;7.93;70.78;95987.94;5007133;28;20195;-78
2024/02/14 07:57:11;;;;;;;3.17;1.20;;;;;;;7.99;71.29;95995.25;5019749;28;20253;-78
2024/02/14 07:59:37;;;;;;;2.93;1.20;;;;;;;8.06;70.69;95999.00;5018756;28;20201;-77
2024/02/14 08:02:02;;;;;;;2.53;1.20;;;;;;;8.08;70.66;95999.69;5019728;28;20194;-77
2024/02/14 08:04:28;;;;;;;1.20;1.10;;;;;;;8.14;70.56;96006.97;5022216;28;20230;-77
2024/02/14 08:06:53;;;;;;;3.63;1.10;;;;;;;8.10;71.22;96005.56;5006011;28;20656;-78
2024/02/14 08:09:18;;;;;;;1.60;1.10;;;;;;;8.23;71.06;95995.88;5017821;28;20182;-78
2024/02/14 08:11:43;;;;;;;7.63;6.17;;;;;;;8.19;71.38;95994.47;5017778;28;20622;-78
2024/02/14 08:14:09;;;;;;;5.43;4.03;;;;;;;8.29;71.69;95993.75;5022301;28;20309;-78
2024/02/14 08:16:35;;;;;;;3.47;2.67;;;;;;;8.44;70.99;96003.72;5009059;28;20187;-78
2024/02/14 08:19:01;;;;;;;3.67;3.37;;;;;;;8.49;71.20;95998.19;5020787;28;20228;-77
2024/02/14 08:21:27;;;;;;;5.63;3.13;;;;;;;8.39;71.17;95999.84;5010309;28;20176;-78
2024/02/14 08:23:53;;;;;;;3.77;2.10;;;;;;;8.59;70.56;96003.44;5020919;28;20211;-77
2024/02/14 08:26:19;;;;;;;2.73;1.40;;;;;;;8.60;70.84;96008.50;5019233;28;20175;-78
2024/02/14 08:28:44;;;;;;;2.53;1.60;;;;;;;8.74;70.70;96013.34;5023738;28;20769;-78
2024/02/14 08:31:11;;;;;;;3.67;1.50;;;;;;;8.79;71.08;96013.00;5002033;28;20190;-79
2024/02/14 08:33:37;;;;;;;3.97;0.97;;;;;;;8.71;71.65;96010.19;5004399;28;20211;-78
2024/02/14 08:36:03;;;;;;;1.10;0.90;;;;;;;8.68;72.02;96006.09;5011513;28;20555;-78
2024/02/14 08:38:29;;;;;;;1.50;1.30;;;;;;;8.89;71.39;96007.88;5018110;28;20187;-77
2024/02/14 08:40:54;;;;;;;4.93;1.60;;;;;;;8.95;71.06;96015.16;5023169;28;20245;-78
2024/02/14 08:43:19;;;;;;;1.50;1.10;;;;;;;9.04;70.83;96014.41;5006373;28;20297;-78
2024/02/14 08:45:45;;;;;;;3.87;1.73;;;;;;;8.87;71.31;96020.97;5017014;28;20195;-78
2024/02/14 08:48:10;;;;;;;6.47;3.90;;;;;;;8.99;71.02;96019.13;5018659;28;20194;-77
2024/02/14 08:50:36;;;;;;;4.77;3.27;;;;;;;9.01;71.51;96022.41;5001692;28;20197;-78
2024/02/14 08:53:01;;;;;;;5.83;4.30;;;;;;;8.99;71.11;96025.13;5004771;28;20209;-78
2024/02/14 08:55:27;;;;;;;4.13;2.20;;;;;;;8.98;71.44;96025.25;5024120;28;20194;-77
2024/02/14 08:57:52;;;;;;;5.83;1.60;;;;;;;9.06;71.12;96026.25;5000092;28;20187;-77
2024/02/14 09:00:21;;;;;;;5.00;2.53;;;;;;;9.12;71.44;96021.53;5017026;28;20179;-77
2024/02/14 09:02:47;;;;;;;4.33;1.30;;;;;;;8.97;71.92;96021.03;5025642;28;20210;-78
2024/02/14 09:05:13;;;;;;;2.47;1.73;;;;;;;9.38;70.81;96019.38;5020912;28;20242;-78
2024/02/14 09:07:38;;;;;;;2.60;2.37;;;;;;;9.43;70.04;96018.00;5004119;28;20269;-77
2024/02/14 09:10:05;;;;;;;3.07;2.00;;;;;;;9.57;69.83;96020.28;5019056;28;20312;-77
2024/02/14 09:12:31;;;;;;;3.10;1.50;;;;;;;9.67;69.33;96029.88;5009113;28;20325;-78
2024/02/14 09:14:57;;;;;;;1.50;0.90;;;;;;;9.36;69.76;96028.09;5018458;28;20183;-77
2024/02/14 09:17:22;;;;;;;2.50;1.20;;;;;;;9.50;69.28;96023.50;5019614;28;20190;-77
2024/02/14 09:19:48;;;;;;;2.80;1.23;;;;;;;9.79;68.55;96019.25;5007518;28;20199;-77
2024/02/14 09:22:18;;;;;;;1.50;1.20;;;;;;;9.86;68.63;96012.59;5019550;28;20210;-78
2024/02/14 09:24:43;;;;;;;1.67;1.00;;;;;;;9.91;69.49;96023.41;5019641;28;20288;-77
2024/02/14 09:27:09;;;;;;;1.13;1.00;;;;;;;10.04;68.63;96030.13;5016732;28;20707;-77
2024/02/14 09:29:36;;;;;;;2.50;1.00;;;;;;;10.22;68.01;96023.38;5004767;28;20187;-78
2024/02/14 09:32:02;;;;;;;3.23;1.20;;;;;;;10.31;68.56;96019.97;5000752;28;20210;-78
2024/02/14 09:34:27;;;;;;;1.60;1.00;;;;;;;10.32;69.09;96020.78;5017350;28;20183;-78
2024/02/14 09:36:53;;;;;;;2.10;1.40;;;;;;;10.44;69.17;96020.56;5015798;28;20191;-77
2024/02/14 09:39:19;;;;;;;4.30;1.60;;;;;;;10.58;69.23;96023.69;5005229;28;20193;-78
2024/02/14 09:41:47;;;;;;;1.57;0.97;;;;;;;11.05;67.36;96022.88;5011100;28;20202;-77
2024/02/14 09:44:12;;;;;;;5.57;1.80;;;;;;;10.95;67.71;96022.03;5016421;28;20215;-79
2024/02/14 09:46:38;;;;;;;2.53;1.20;;;;;;;11.14;67.51;96018.63;5006325;28;20208;-78
2024/02/14 09:49:04;;;;;;;1.50;0.90;;;;;;;10.82;69.02;96018.91;5004296;28;20187;-78
2024/02/14 09:51:30;;;;;;;1.20;0.70;;;;;;;10.54;70.01;96015.38;5023257;28;20217;-77
2024/02/14 09:53:55;;;;;;;2.27;0.80;;;;;;;11.03;68.02;96014.38;5006281;28;20651;-78
2024/02/14 09:56:24;;;;;;;1.33;0.80;;;;;;;11.37;67.55;96019.09;5017616;28;20202;-77
2024/02/14 09:58:55;;;;;;;1.00;0.90;;;;;;;11.81;66.68;96020.22;5012123;28;20656;-77
2024/02/14 10:01:23;;;;;;;1.63;0.90;;;;;;;11.81;65.68;96017.63;5015552;28;20183;-78
2024/02/14 10:03:52;;;;;;;0.93;0.63;;;;;;;11.96;66.13;96012.75;5004916;28;20218;-79
2024/02/14 10:06:19;;;;;;;1.13;0.70;;;;;;;12.23;65.99;96021.53;5007071;28;20186;-78
2024/02/14 10:08:48;;;;;;;2.13;0.93;;;;;;;11.54;68.14;96020.16;5024631;28;20187;-78
2024/02/14 10:11:15;;;;;;;2.07;1.07;;;;;;;11.75;67.53;96022.53;5009249;28;20205;-78
2024/02/14 10:13:41;;;;;;;0.80;0.70;;;;;;;11.74;68.00;96031.31;5011780;28;20719;-78
2024/02/14 10:16:08;;;;;;;2.00;0.80;;;;;;;11.52;69.04;96022.91;5019376;28;20182;-77
2024/02/14 10:18:33;;;;;;;1.53;0.70;;;;;;;11.38;68.16;96012.13;5012790;28;20247;-78
2024/02/14 10:20:59;;;;;;;0.60;0.60;;;;;;;11.65;67.23;96022.56;5018750;28;20218;-78
2024/02/14 10:23:27;;;;;;;0.90;0.80;;;;;;;11.75;67.77;96020.78;5017327;28;20242;-77
2024/02/14 10:25:53;;;;;;;3.90;0.80;;;;;;;11.93;66.92;96020.03;5010591;28;20187;-78
2024/02/14 10:28:19;;;;;;;1.67;1.10;;;;;;;11.74;67.55;96023.50;5015052;28;20266;-78
2024/02/14 10:30:49;;;;;;;1.73;1.10;;;;;;;11.37;69.06;96016.50;5015560;28;20213;-78
2024/02/14 10:33:15;;;;;;;1.70;0.90;;;;;;;11.21;69.46;96018.88;5013721;28;20213;-78
2024/02/14 10:35:42;;;;;;;1.50;0.70;;;;;;;11.27;69.05;96024.31;5022573;28;20194;-77
2024/02/14 10:38:09;;;;;;;1.20;1.03;;;;;;;11.41;69.67;96024.88;5025103;28;20624;-77
2024/02/14 10:40:35;;;;;;;1.70;0.90;;;;;;;11.16;70.57;96029.69;5011288;28;20223;-78
2024/02/14 10:43:01;;;;;;;1.37;0.83;;;;;;;11.31;70.05;96037.88;5024085;28;20222;-77
2024/02/14 10:45:27;;;;;;;1.13;0.87;;;;;;;11.05;71.53;96035.06;5026076;28;20183;-78
2024/02/14 10:47:57;;;;;;;1.33;0.80;;;;;;;11.49;69.95;96040.59;5023059;28;20186;-77
2024/02/14 10:50:24;;;;;;;1.30;0.70;;;;;;;11.05;71.62;96046.25;5011796;28;20201;-77
2024/02/14 10:52:50;;;;;;;1.90;0.67;;;;;;;11.23;71.05;96053.38;5022062;28;20806;-78
2024/02/14 10:55:16;;;;;;;1.17;0.70;;;;;;;11.13;71.52;96053.38;5020161;28;20206;-77
2024/02/14 10:57:45;;;;;;;0.70;0.60;;;;;;;11.39;70.69;96057.97;5020784;28;20187;-78
2024/02/14 11:00:13;;;;;;;0.50;0.50;;;;;;;11.50;70.36;96050.84;5020787;28;20193;-77
2024/02/14 11:02:41;;;;;;;1.20;0.77;;;;;;;11.44;70.40;96061.78;5011478;28;20302;-77
2024/02/14 11:05:16;;;;;;;1.10;0.80;;;;;;;11.51;70.62;96060.28;5009666;28;20680;-77
2024/02/14 11:07:46;;;;;;;2.00;0.80;;;;;;;11.37;71.55;96059.88;5008675;28;20198;-77
2024/02/14 11:10:22;;;;;;;0.90;0.70;;;;;;;11.37;71.36;96054.69;5019391;28;20237;-77
2024/02/14 11:12:51;;;;;;;1.07;0.80;;;;;;;11.39;71.37;96053.56;5017612;28;20214;-77
2024/02/14 11:15:21;;;;;;;1.23;0.50;;;;;;;11.47;71.17;96052.88;5018678;28;20191;-76
2024/02/14 11:17:48;;;;;;;0.77;0.53;;;;;;;11.61;70.96;96055.88;5018483;28;20196;-77
2024/02/14 11:20:31;;;;;;;1.60;0.67;;;;;;;11.60;70.40;96063.81;5007802;28;20671;-78
2024/02/14 11:23:03;;;;;;;0.77;0.60;;;;;;;11.59;69.88;96050.00;5019526;28;20199;-78
2024/02/14 11:25:32;;;;;;;0.57;0.50;;;;;;;11.81;69.72;96061.84;5018188;28;20199;-77
2024/02/14 11:27:59;;;;;;;1.30;1.20;;;;;;;11.88;69.03;96067.31;5007688;28;20701;-77
2024/02/14 11:30:33;;;;;;;0.80;0.60;;;;;;;11.74;69.45;96057.31;5022197;28;20185;-77
2024/02/14 11:33:23;;;;;;;1.47;0.40;;;;;;;11.99;68.55;96058.50;5011124;28;20249;-77